createdAt,value
2017-06-19T00:00:33.286Z,25.64
2017-06-19T00:01:43.188Z,25.62
2017-06-19T00:02:53.095Z,25.62
2017-06-19T00:04:03.101Z,25.46
2017-06-19T00:05:13.008Z,25.43
2017-06-19T00:06:23.224Z,25.51
2017-06-19T00:07:32.525Z,25.46
2017-06-19T00:08:42.445Z,25.57
2017-06-19T00:09:52.779Z,25.52
2017-06-19T00:11:02.687Z,25.5
2017-06-19T00:12:12.906Z,25.57
2017-06-19T00:13:22.523Z,25.51
2017-06-19T00:14:32.728Z,25.5
2017-06-19T00:15:42.945Z,25.38
2017-06-19T00:16:52.548Z,25.46
2017-06-19T00:18:02.779Z,25.42
2017-06-19T00:19:12.683Z,25.42
2017-06-19T00:20:22.294Z,25.38
2017-06-19T00:21:32.254Z,25.32
2017-06-19T00:22:41.866Z,25.33
2017-06-19T00:23:51.778Z,25.36
2017-06-19T00:25:01.697Z,25.3
2017-06-19T00:26:11.313Z,25.28
2017-06-19T00:27:20.752Z,25.32
2017-06-19T00:28:30.971Z,25.32
2017-06-19T00:29:41.192Z,25.32
2017-06-19T00:30:51.115Z,25.39
2017-06-19T00:32:01.352Z,25.32
2017-06-19T00:33:11.629Z,25.32
2017-06-19T00:34:21.236Z,25.39
2017-06-19T00:35:31.150Z,25.39
2017-06-19T00:36:41.083Z,25.32
2017-06-19T00:37:51.306Z,25.23
2017-06-19T00:39:01.320Z,25.3
2017-06-19T00:40:11.252Z,25.28
2017-06-19T00:41:21.182Z,25.28
2017-06-19T00:42:30.489Z,25.24
2017-06-19T00:43:40.402Z,25.28
2017-06-19T00:44:50.792Z,25.27
2017-06-19T00:46:00.715Z,25.25
2017-06-19T00:47:10.341Z,25.24
2017-06-19T00:48:20.272Z,25.23
2017-06-19T00:49:30.188Z,25.17
2017-06-19T00:50:40.099Z,25.15
2017-06-19T00:51:50.313Z,25.15
2017-06-19T00:52:59.908Z,25.2
2017-06-19T00:54:09.194Z,25.2
2017-06-19T00:55:19.101Z,25.24
2017-06-19T00:56:29.176Z,25.18
2017-06-19T00:57:39.085Z,25.15
2017-06-19T00:58:48.699Z,25.18
2017-06-19T00:59:58.921Z,25.18
2017-06-19T01:01:08.545Z,25.13
2017-06-19T01:02:18.149Z,25.17
2017-06-19T01:03:27.756Z,25.15
2017-06-19T01:04:37.664Z,25.18
2017-06-19T01:05:47.269Z,25.13
2017-06-19T01:06:56.865Z,25.13
2017-06-19T01:08:06.774Z,25.1
2017-06-19T01:09:17.009Z,25.09
2017-06-19T01:10:26.619Z,25.13
2017-06-19T01:11:36.221Z,25.1
2017-06-19T01:12:46.443Z,25.06
2017-06-19T01:13:56.707Z,25.05
2017-06-19T01:15:06.628Z,25.02
2017-06-19T01:16:16.854Z,24.96
2017-06-19T01:17:26.144Z,24.95
2017-06-19T01:18:36.072Z,24.91
2017-06-19T01:19:45.669Z,24.98
2017-06-19T01:20:55.576Z,24.98
2017-06-19T01:22:05.183Z,24.91
2017-06-19T01:23:14.810Z,24.91
2017-06-19T01:24:24.416Z,24.95
2017-06-19T01:25:34.339Z,24.91
2017-06-19T01:26:44.245Z,24.93
2017-06-19T01:27:54.164Z,24.96
2017-06-19T01:29:04.077Z,24.88
2017-06-19T01:30:13.689Z,24.93
2017-06-19T01:31:24.264Z,24.83
2017-06-19T01:32:33.864Z,24.77
2017-06-19T01:33:43.783Z,24.8
2017-06-19T01:34:54.015Z,24.8
2017-06-19T01:36:03.622Z,24.77
2017-06-19T01:37:13.878Z,24.84
2017-06-19T01:38:23.797Z,24.8
2017-06-19T01:39:33.706Z,24.88
2017-06-19T01:40:43.317Z,24.71
2017-06-19T01:41:53.222Z,24.8
2017-06-19T01:43:03.287Z,24.78
2017-06-19T01:44:12.885Z,24.8
2017-06-19T01:45:22.480Z,24.78
2017-06-19T01:46:32.101Z,24.76
2017-06-19T01:47:41.715Z,24.67
2017-06-19T01:48:51.319Z,24.68
2017-06-19T01:50:01.535Z,24.64
2017-06-19T01:51:11.750Z,24.53
2017-06-19T01:52:21.657Z,24.58
2017-06-19T01:53:31.565Z,24.6
2017-06-19T01:54:41.337Z,24.47
2017-06-19T01:55:51.561Z,24.55
2017-06-19T01:57:01.783Z,24.5
2017-06-19T01:58:11.389Z,24.55
2017-06-19T01:59:20.984Z,24.43
2017-06-19T02:00:31.343Z,24.49
2017-06-19T02:01:41.258Z,24.43
2017-06-19T02:02:51.179Z,24.45
2017-06-19T02:04:01.095Z,24.32
2017-06-19T02:05:11.013Z,24.35
2017-06-19T02:06:21.376Z,24.4
2017-06-19T02:07:31.282Z,24.43
2017-06-19T02:08:41.185Z,24.28
2017-06-19T02:09:51.111Z,24.31
2017-06-19T02:11:01.330Z,24.31
2017-06-19T02:12:10.944Z,24.34
2017-06-19T02:13:20.555Z,24.45
2017-06-19T02:14:30.470Z,24.45
2017-06-19T02:15:40.069Z,24.32
2017-06-19T02:16:50.284Z,24.4
2017-06-19T02:18:00.845Z,24.3
2017-06-19T02:19:10.130Z,24.35
2017-06-19T02:20:20.377Z,24.31
2017-06-19T02:21:30.287Z,24.22
2017-06-19T02:22:40.190Z,24.3
2017-06-19T02:23:50.550Z,24.25
2017-06-19T02:25:00.472Z,24.21
2017-06-19T02:26:10.072Z,24.27
2017-06-19T02:27:19.976Z,24.28
2017-06-19T02:28:29.885Z,24.15
2017-06-19T02:29:39.538Z,24.32
2017-06-19T02:30:49.768Z,24.18
2017-06-19T02:31:59.987Z,24.31
2017-06-19T02:33:09.596Z,24.3
2017-06-19T02:34:19.818Z,24.15
2017-06-19T02:35:30.035Z,24.24
2017-06-19T02:36:39.634Z,24.2
2017-06-19T02:37:49.242Z,24.25
2017-06-19T02:38:59.478Z,24.2
2017-06-19T02:40:09.392Z,24.1
2017-06-19T02:41:19.654Z,24.15
2017-06-19T02:42:29.557Z,24.22
2017-06-19T02:43:39.472Z,24.22
2017-06-19T02:44:49.383Z,24.22
2017-06-19T02:45:59.292Z,24.16
2017-06-19T02:47:09.544Z,24.27
2017-06-19T02:48:19.141Z,24.16
2017-06-19T02:49:29.064Z,24.2
2017-06-19T02:50:38.972Z,24.21
2017-06-19T02:51:49.196Z,24.22
2017-06-19T02:52:59.720Z,24.12
2017-06-19T02:54:09.937Z,24.25
2017-06-19T02:55:19.533Z,24.25
2017-06-19T02:56:29.464Z,24.31
2017-06-19T02:57:39.376Z,24.28
2017-06-19T02:58:49.633Z,24.22
2017-06-19T02:59:59.542Z,24.24
2017-06-19T03:01:09.749Z,24.22
2017-06-19T03:02:19.652Z,24.24
2017-06-19T03:03:29.273Z,24.2
2017-06-19T03:04:39.528Z,24.1
2017-06-19T03:05:49.741Z,24.09
2017-06-19T03:06:59.963Z,24.15
2017-06-19T03:08:09.908Z,24.06
2017-06-19T03:09:20.128Z,24.05
2017-06-19T03:10:30.440Z,24.13
2017-06-19T03:11:40.343Z,24.08
2017-06-19T03:12:50.271Z,24.1
2017-06-19T03:14:00.177Z,24.08
2017-06-19T03:15:09.809Z,24.06
2017-06-19T03:16:19.414Z,24.05
2017-06-19T03:17:29.051Z,24.05
2017-06-19T03:18:38.340Z,23.95
2017-06-19T03:19:48.238Z,23.93
2017-06-19T03:20:58.151Z,23.9
2017-06-19T03:22:08.218Z,23.9
2017-06-19T03:23:18.130Z,23.9
2017-06-19T03:24:27.113Z,23.87
2017-06-19T03:25:37.014Z,23.9
2017-06-19T03:26:46.920Z,23.97
2017-06-19T03:27:56.317Z,23.91
2017-06-19T03:29:06.217Z,23.95
2017-06-19T03:30:16.431Z,23.91
2017-06-19T03:31:26.654Z,23.88
2017-06-19T03:32:36.874Z,23.91
2017-06-19T03:33:46.634Z,23.94
2017-06-19T03:34:56.857Z,23.79
2017-06-19T03:36:06.762Z,23.83
2017-06-19T03:37:16.666Z,23.79
2017-06-19T03:38:26.578Z,23.8
2017-06-19T03:39:36.968Z,23.8
2017-06-19T03:40:47.189Z,23.72
2017-06-19T03:41:56.492Z,23.73
2017-06-19T03:43:06.713Z,23.75
2017-06-19T03:44:16.619Z,23.76
2017-06-19T03:45:26.525Z,23.7
2017-06-19T03:46:36.453Z,23.7
2017-06-19T03:47:46.351Z,23.78
2017-06-19T03:48:56.259Z,23.69
2017-06-19T03:50:06.176Z,23.7
2017-06-19T03:51:16.182Z,23.83
2017-06-19T03:52:26.393Z,23.75
2017-06-19T03:53:36.302Z,23.84
2017-06-19T03:54:45.908Z,23.8
2017-06-19T03:55:56.119Z,23.83
2017-06-19T03:57:06.174Z,23.78
2017-06-19T03:58:16.081Z,23.69
2017-06-19T03:59:25.985Z,23.79
2017-06-19T04:00:36.206Z,23.88
2017-06-19T04:01:45.493Z,23.85
2017-06-19T04:02:55.714Z,23.84
2017-06-19T04:04:05.923Z,23.79
2017-06-19T04:05:15.548Z,23.85
2017-06-19T04:06:25.153Z,23.85
2017-06-19T04:07:34.759Z,23.83
2017-06-19T04:08:45.122Z,23.88
2017-06-19T04:09:55.337Z,23.93
2017-06-19T04:11:04.313Z,23.85
2017-06-19T04:12:13.614Z,23.84
2017-06-19T04:13:23.220Z,23.83
2017-06-19T04:14:33.270Z,23.85
2017-06-19T04:15:42.873Z,23.78
2017-06-19T04:16:53.093Z,23.75
2017-06-19T04:18:02.391Z,23.79
2017-06-19T04:19:12.312Z,23.73
2017-06-19T04:20:22.067Z,23.73
2017-06-19T04:21:31.983Z,23.8
2017-06-19T04:22:42.201Z,23.83
2017-06-19T04:23:52.417Z,23.78
2017-06-19T04:25:02.014Z,23.83
2017-06-19T04:26:11.788Z,23.78
2017-06-19T04:27:22.004Z,23.79
2017-06-19T04:28:31.911Z,23.75
2017-06-19T04:29:41.862Z,23.79
2017-06-19T04:30:52.077Z,23.72
2017-06-19T04:32:02.643Z,23.79
2017-06-19T04:33:12.567Z,23.73
2017-06-19T04:34:22.488Z,23.85
2017-06-19T04:35:32.719Z,23.73
2017-06-19T04:36:42.635Z,23.75
2017-06-19T04:37:52.541Z,23.75
2017-06-19T04:39:02.163Z,23.8
2017-06-19T04:40:11.820Z,23.83
2017-06-19T04:41:21.737Z,23.79
2017-06-19T04:42:31.961Z,23.87
2017-06-19T04:43:41.945Z,23.83
2017-06-19T04:44:52.178Z,23.87
2017-06-19T04:46:02.409Z,23.83
2017-06-19T04:47:12.315Z,23.83
2017-06-19T04:48:22.537Z,23.83
2017-06-19T04:49:32.813Z,23.95
2017-06-19T04:50:43.041Z,23.88
2017-06-19T04:51:52.651Z,23.88
2017-06-19T04:53:02.626Z,23.93
2017-06-19T04:54:12.847Z,23.95
2017-06-19T04:55:23.246Z,23.9
2017-06-19T04:56:33.175Z,23.95
2017-06-19T04:57:43.393Z,23.9
2017-06-19T04:58:53.314Z,23.93
2017-06-19T05:00:02.913Z,23.91
2017-06-19T05:01:12.278Z,23.95
2017-06-19T05:02:22.516Z,23.91
2017-06-19T05:03:32.732Z,23.93
2017-06-19T05:04:42.949Z,23.9
2017-06-19T05:05:53.169Z,23.94
2017-06-19T05:07:03.183Z,23.95
2017-06-19T05:08:12.784Z,23.95
2017-06-19T05:09:22.082Z,23.98
2017-06-19T05:10:31.401Z,24.06
2017-06-19T05:11:41.012Z,24.05
2017-06-19T05:12:50.933Z,24.12
2017-06-19T05:14:00.544Z,24.09
2017-06-19T05:15:10.173Z,24.12
2017-06-19T05:16:20.101Z,24.18
2017-06-19T05:17:30.012Z,24.2
2017-06-19T05:18:39.620Z,24.31
2017-06-19T05:19:49.567Z,24.37
2017-06-19T05:20:59.510Z,24.42
2017-06-19T05:22:09.725Z,24.27
2017-06-19T05:23:19.646Z,24.46
2017-06-19T05:24:29.295Z,24.49
2017-06-19T05:25:38.902Z,24.58
2017-06-19T05:26:48.828Z,24.73
2017-06-19T05:27:58.739Z,24.76
2017-06-19T05:29:08.644Z,24.81
2017-06-19T05:30:18.558Z,24.91
2017-06-19T05:31:27.843Z,25.02
2017-06-19T05:32:37.767Z,25.14
2017-06-19T05:33:47.667Z,25.32
2017-06-19T05:34:57.572Z,25.27
2017-06-19T05:36:07.274Z,25.42
2017-06-19T05:37:17.863Z,25.47
2017-06-19T05:38:27.474Z,25.55
2017-06-19T05:39:37.384Z,25.6
2017-06-19T05:40:47.288Z,25.72
2017-06-19T05:41:57.538Z,25.77
2017-06-19T05:43:07.753Z,25.91
2017-06-19T05:44:17.976Z,25.95
2017-06-19T05:45:27.906Z,26.02
2017-06-19T05:46:37.820Z,25.95
2017-06-19T05:47:47.898Z,26.09
2017-06-19T05:48:57.834Z,26.1
2017-06-19T05:50:07.456Z,26.26
2017-06-19T05:51:17.377Z,26.36
2017-06-19T05:52:27.294Z,26.44
2017-06-19T05:53:37.254Z,26.54
2017-06-19T05:54:47.166Z,26.6
2017-06-19T05:55:57.080Z,26.65
2017-06-19T05:57:06.991Z,26.65
2017-06-19T05:58:16.597Z,26.7
2017-06-19T05:59:26.658Z,26.77
2017-06-19T06:00:36.565Z,26.81
2017-06-19T06:01:46.479Z,26.97
2017-06-19T06:02:56.084Z,27.02
2017-06-19T06:04:05.688Z,27.19
2017-06-19T06:05:15.650Z,27.18
2017-06-19T06:06:25.871Z,27.25
2017-06-19T06:07:35.478Z,27.31
2017-06-19T06:08:45.717Z,27.31
2017-06-19T06:09:55.941Z,27.31
2017-06-19T06:11:05.950Z,27.47
2017-06-19T06:12:16.570Z,27.39
2017-06-19T06:13:26.185Z,27.34
2017-06-19T06:14:35.499Z,27.49
2017-06-19T06:15:45.734Z,27.51
2017-06-19T06:16:55.715Z,27.55
2017-06-19T06:18:05.639Z,27.62
2017-06-19T06:19:15.262Z,27.7
2017-06-19T06:20:24.875Z,27.74
2017-06-19T06:21:35.092Z,27.85
2017-06-19T06:22:44.701Z,27.93
2017-06-19T06:23:54.308Z,27.9
2017-06-19T06:25:04.534Z,27.88
2017-06-19T06:26:14.750Z,28
2017-06-19T06:27:24.968Z,28.03
2017-06-19T06:28:34.564Z,28.09
2017-06-19T06:29:44.172Z,28.14
2017-06-19T06:30:54.095Z,28.19
2017-06-19T06:32:04.318Z,28.27
2017-06-19T06:33:14.544Z,28.3
2017-06-19T06:34:24.797Z,28.36
2017-06-19T06:35:34.395Z,28.36
2017-06-19T06:36:43.999Z,28.4
2017-06-19T06:37:53.589Z,28.43
2017-06-19T06:39:03.513Z,28.49
2017-06-19T06:40:13.437Z,28.56
2017-06-19T06:41:23.031Z,28.56
2017-06-19T06:42:32.673Z,28.66
2017-06-19T06:43:42.912Z,28.62
2017-06-19T06:44:52.815Z,28.73
2017-06-19T06:46:02.774Z,28.74
2017-06-19T06:47:13.034Z,28.89
2017-06-19T06:48:22.964Z,28.86
2017-06-19T06:49:32.894Z,29.02
2017-06-19T06:50:42.812Z,29
2017-06-19T06:51:52.570Z,29.08
2017-06-19T06:53:02.784Z,29.16
2017-06-19T06:54:12.407Z,29.28
2017-06-19T06:55:22.014Z,29.31
2017-06-19T06:56:31.625Z,29.49
2017-06-19T06:57:40.975Z,29.53
2017-06-19T06:58:50.880Z,29.55
2017-06-19T07:00:00.824Z,29.6
2017-06-19T07:01:10.426Z,29.65
2017-06-19T07:02:20.055Z,29.86
2017-06-19T07:03:30.072Z,30
2017-06-19T07:04:39.372Z,30.13
2017-06-19T07:05:48.999Z,30.32
2017-06-19T07:06:59.207Z,30.35
2017-06-19T07:08:08.812Z,30.46
2017-06-19T07:09:18.840Z,30.61
2017-06-19T07:10:28.442Z,30.73
2017-06-19T07:11:38.378Z,30.92
2017-06-19T07:12:48.604Z,30.99
2017-06-19T07:13:58.247Z,31.09
2017-06-19T07:15:08.474Z,31.2
2017-06-19T07:16:18.152Z,31.29
2017-06-19T07:17:28.692Z,31.31
2017-06-19T07:18:37.805Z,31.44
2017-06-19T07:19:48.435Z,31.56
2017-06-19T07:20:58.212Z,31.73
2017-06-19T07:22:09.422Z,31.75
2017-06-19T07:23:19.041Z,31.86
2017-06-19T07:24:29.500Z,31.93
2017-06-19T07:25:40.364Z,32.03
2017-06-19T07:26:50.735Z,32.11
2017-06-19T07:28:00.749Z,32.15
2017-06-19T07:29:11.393Z,32.29
2017-06-19T07:30:21.322Z,32.26
2017-06-19T07:31:31.240Z,32.44
2017-06-19T07:32:41.380Z,32.38
2017-06-19T07:33:51.996Z,32.45
2017-06-19T07:35:01.928Z,32.55
2017-06-19T07:36:11.528Z,32.62
2017-06-19T07:37:21.147Z,32.67
2017-06-19T07:38:31.205Z,32.77
2017-06-19T07:39:41.119Z,32.88
2017-06-19T07:40:51.043Z,32.96
2017-06-19T07:42:00.965Z,33.03
2017-06-19T07:43:10.874Z,33.14
2017-06-19T07:44:20.939Z,33.32
2017-06-19T07:45:31.155Z,33.53
2017-06-19T07:46:41.064Z,33.61
2017-06-19T07:47:50.999Z,33.79
2017-06-19T07:49:00.623Z,33.97
2017-06-19T07:50:10.865Z,34.13
2017-06-19T07:51:20.789Z,34.32
2017-06-19T07:52:30.718Z,34.62
2017-06-19T07:53:40.664Z,34.69
2017-06-19T07:54:50.592Z,34.85
2017-06-19T07:56:00.545Z,35.07
2017-06-19T07:57:09.864Z,35.31
2017-06-19T07:58:19.776Z,35.55
2017-06-19T07:59:29.397Z,35.81
2017-06-19T08:00:39.021Z,35.96
2017-06-19T08:01:49.088Z,36.15
2017-06-19T08:02:58.705Z,36.37
2017-06-19T08:04:08.317Z,36.46
2017-06-19T08:05:18.242Z,36.62
2017-06-19T08:06:28.478Z,36.8
2017-06-19T08:07:38.506Z,36.91
2017-06-19T08:08:47.826Z,37.1
2017-06-19T08:09:57.742Z,37.27
2017-06-19T08:11:07.372Z,37.37
2017-06-19T08:12:17.598Z,37.56
2017-06-19T08:13:27.199Z,37.66
2017-06-19T08:14:36.496Z,37.75
2017-06-19T08:15:46.419Z,37.88
2017-06-19T08:16:56.344Z,38.06
2017-06-19T08:18:05.640Z,38.12
2017-06-19T08:19:15.907Z,38.25
2017-06-19T08:20:26.165Z,38.4
2017-06-19T08:21:36.382Z,38.38
2017-06-19T08:22:45.695Z,38.54
2017-06-19T08:23:55.005Z,38.63
2017-06-19T08:25:05.076Z,38.63
2017-06-19T08:26:15.009Z,38.76
2017-06-19T08:27:24.623Z,38.78
2017-06-19T08:28:34.262Z,38.86
2017-06-19T08:29:43.567Z,38.98
2017-06-19T08:30:53.236Z,39.03
2017-06-19T08:32:03.152Z,39.09
2017-06-19T08:33:12.795Z,39.16
2017-06-19T08:34:21.802Z,39.04
2017-06-19T08:35:31.112Z,39.11
2017-06-19T08:36:41.414Z,39.16
2017-06-19T08:37:51.635Z,38.93
2017-06-19T08:39:01.552Z,38.61
2017-06-19T08:40:11.163Z,38.32
2017-06-19T08:41:20.795Z,37.88
2017-06-19T08:42:30.407Z,37.51
2017-06-19T08:43:40.051Z,37.09
2017-06-19T08:44:50.318Z,36.72
2017-06-19T08:45:59.928Z,36.27
2017-06-19T08:47:10.146Z,35.94
2017-06-19T08:48:19.749Z,35.59
2017-06-19T08:49:29.668Z,35.37
2017-06-19T08:50:39.273Z,34.96
2017-06-19T08:51:48.880Z,34.66
2017-06-19T08:52:58.502Z,34.52
2017-06-19T08:54:08.430Z,34.19
2017-06-19T08:55:18.669Z,34.06
2017-06-19T08:56:28.596Z,33.72
2017-06-19T08:57:38.219Z,33.41
2017-06-19T08:58:47.835Z,33.29
2017-06-19T08:59:57.760Z,33.04
2017-06-19T09:01:07.362Z,32.88
2017-06-19T09:02:17.317Z,32.69
2017-06-19T09:03:27.241Z,32.57
2017-06-19T09:04:37.476Z,32.35
2017-06-19T09:05:47.838Z,32.14
2017-06-19T09:06:57.472Z,31.95
2017-06-19T09:08:07.084Z,31.8
2017-06-19T09:09:17.059Z,31.68
2017-06-19T09:10:26.699Z,31.51
2017-06-19T09:11:36.355Z,31.34
2017-06-19T09:12:46.624Z,31.25
2017-06-19T09:13:56.252Z,31.14
2017-06-19T09:15:06.172Z,31.09
2017-06-19T09:16:16.108Z,30.92
2017-06-19T09:17:26.050Z,30.89
2017-06-19T09:18:35.668Z,30.7
2017-06-19T09:19:45.916Z,30.65
2017-06-19T09:20:56.148Z,30.55
2017-06-19T09:22:05.774Z,30.39
2017-06-19T09:23:15.474Z,30.37
2017-06-19T09:24:25.422Z,30.2
2017-06-19T09:25:35.057Z,30.11
2017-06-19T09:26:44.991Z,30.08
2017-06-19T09:27:54.912Z,29.98
2017-06-19T09:29:04.921Z,29.9
2017-06-19T09:30:14.564Z,29.82
2017-06-19T09:31:23.585Z,29.83
2017-06-19T09:32:33.222Z,29.7
2017-06-19T09:33:43.177Z,29.64
2017-06-19T09:34:53.553Z,29.63
2017-06-19T09:36:03.465Z,29.64
2017-06-19T09:37:13.140Z,29.67
2017-06-19T09:38:23.058Z,29.6
2017-06-19T09:39:33.314Z,29.55
2017-06-19T09:40:43.395Z,29.46
2017-06-19T09:41:53.018Z,29.42
2017-06-19T09:43:02.621Z,29.45
2017-06-19T09:44:12.532Z,29.39
2017-06-19T09:45:22.447Z,29.31
2017-06-19T09:46:32.519Z,29.33
2017-06-19T09:47:41.818Z,29.27
2017-06-19T09:48:52.053Z,29.28
2017-06-19T09:50:01.968Z,29.26
2017-06-19T09:51:10.994Z,29.28
2017-06-19T09:52:20.994Z,29.18
2017-06-19T09:53:30.918Z,29.09
2017-06-19T09:54:40.546Z,29.08
2017-06-19T09:55:50.492Z,29.08
2017-06-19T09:57:00.099Z,29.12
2017-06-19T09:58:10.500Z,29.12
2017-06-19T09:59:20.741Z,29.06
2017-06-19T10:00:30.898Z,28.96
2017-06-19T10:01:40.197Z,28.98
2017-06-19T10:02:50.412Z,28.95
2017-06-19T10:04:00.017Z,28.92
2017-06-19T10:05:09.937Z,28.92
2017-06-19T10:06:20.164Z,28.88
2017-06-19T10:07:29.807Z,28.86
2017-06-19T10:08:39.111Z,28.9
2017-06-19T10:09:49.059Z,28.86
2017-06-19T10:10:58.373Z,28.8
2017-06-19T10:12:07.991Z,28.76
2017-06-19T10:13:18.205Z,28.8
2017-06-19T10:14:28.139Z,28.76
2017-06-19T10:15:37.871Z,28.7
2017-06-19T10:16:47.498Z,28.76
2017-06-19T10:17:57.501Z,28.7
2017-06-19T10:19:07.105Z,28.73
2017-06-19T10:20:16.710Z,28.64
2017-06-19T10:21:26.965Z,28.7
2017-06-19T10:22:36.564Z,28.67
2017-06-19T10:23:46.478Z,28.56
2017-06-19T10:24:55.473Z,28.54
2017-06-19T10:26:05.384Z,28.59
2017-06-19T10:27:15.454Z,28.62
2017-06-19T10:28:25.376Z,28.56
2017-06-19T10:29:35.604Z,28.52
2017-06-19T10:30:45.831Z,28.56
2017-06-19T10:31:55.462Z,28.54
2017-06-19T10:33:05.380Z,28.49
2017-06-19T10:34:15.613Z,28.51
2017-06-19T10:35:25.853Z,28.58
2017-06-19T10:36:36.076Z,28.58
2017-06-19T10:37:45.413Z,28.44
2017-06-19T10:38:56.004Z,28.48
2017-06-19T10:40:05.937Z,28.4
2017-06-19T10:41:15.850Z,28.51
2017-06-19T10:42:25.156Z,28.51
2017-06-19T10:43:35.394Z,28.48
2017-06-19T10:44:45.361Z,28.56
2017-06-19T10:45:54.967Z,28.39
2017-06-19T10:47:05.195Z,28.49
2017-06-19T10:48:14.498Z,28.43
2017-06-19T10:49:24.725Z,28.44
2017-06-19T10:50:34.693Z,28.39
2017-06-19T10:51:44.293Z,28.4
2017-06-19T10:52:54.232Z,28.36
2017-06-19T10:54:04.458Z,28.4
2017-06-19T10:55:14.672Z,28.44
2017-06-19T10:56:24.426Z,28.31
2017-06-19T10:57:33.791Z,28.44
2017-06-19T10:58:43.083Z,28.33
2017-06-19T10:59:53.305Z,28.39
2017-06-19T11:01:03.527Z,28.39
2017-06-19T11:02:13.501Z,28.39
2017-06-19T11:03:23.459Z,28.34
2017-06-19T11:04:33.689Z,28.4
2017-06-19T11:05:43.303Z,28.31
2017-06-19T11:06:53.533Z,28.37
2017-06-19T11:08:03.470Z,28.4
2017-06-19T11:09:13.089Z,28.4
2017-06-19T11:10:23.007Z,28.3
2017-06-19T11:11:32.923Z,28.27
2017-06-19T11:12:43.155Z,28.37
2017-06-19T11:13:52.869Z,28.34
2017-06-19T11:15:02.785Z,28.3
2017-06-19T11:16:12.088Z,28.37
2017-06-19T11:17:22.014Z,28.34
2017-06-19T11:18:31.307Z,28.3
2017-06-19T11:19:40.719Z,28.36
2017-06-19T11:20:50.631Z,28.41
2017-06-19T11:22:00.846Z,28.34
2017-06-19T11:23:10.457Z,28.33
2017-06-19T11:24:20.400Z,28.34
2017-06-19T11:25:30.748Z,28.33
2017-06-19T11:26:40.357Z,28.41
2017-06-19T11:27:50.264Z,28.43
2017-06-19T11:28:59.867Z,28.41
2017-06-19T11:30:09.783Z,28.34
2017-06-19T11:31:19.829Z,28.4
2017-06-19T11:32:29.433Z,28.37
2017-06-19T11:33:38.420Z,28.34
2017-06-19T11:34:48.358Z,28.39
2017-06-19T11:35:58.278Z,28.39
2017-06-19T11:37:07.950Z,28.4
2017-06-19T11:38:17.924Z,28.34
2017-06-19T11:39:27.827Z,28.41
2017-06-19T11:40:37.749Z,28.3
2017-06-19T11:41:47.671Z,28.3
2017-06-19T11:42:56.980Z,28.37
2017-06-19T11:44:06.899Z,28.39
2017-06-19T11:45:16.808Z,28.34
2017-06-19T11:46:26.409Z,28.34
2017-06-19T11:47:36.625Z,28.39
2017-06-19T11:48:46.539Z,28.34
2017-06-19T11:49:56.142Z,28.39
2017-06-19T11:51:05.754Z,28.39
2017-06-19T11:52:15.976Z,28.33
2017-06-19T11:53:25.293Z,28.33
2017-06-19T11:54:35.198Z,28.36
2017-06-19T11:55:45.101Z,28.36
2017-06-19T11:56:55.350Z,28.34
2017-06-19T11:58:05.592Z,28.33
2017-06-19T11:59:14.899Z,28.31
2017-06-19T12:00:24.815Z,28.33
2017-06-19T12:01:34.434Z,28.27
2017-06-19T12:02:44.358Z,28.31
2017-06-19T12:03:53.653Z,28.36
2017-06-19T12:05:03.592Z,28.31
2017-06-19T12:06:13.562Z,28.33
2017-06-19T12:07:22.917Z,28.4
2017-06-19T12:08:32.822Z,28.34
2017-06-19T12:09:43.077Z,28.31
2017-06-19T12:10:53.014Z,28.33
2017-06-19T12:12:03.264Z,28.39
2017-06-19T12:13:12.883Z,28.31
2017-06-19T12:14:22.502Z,28.39
2017-06-19T12:15:33.414Z,28.37
2017-06-19T12:16:43.030Z,28.37
2017-06-19T12:17:53.255Z,28.34
2017-06-19T12:19:02.262Z,28.37
2017-06-19T12:20:12.184Z,28.36
2017-06-19T12:21:22.440Z,28.34
2017-06-19T12:22:32.668Z,28.39
2017-06-19T12:23:42.280Z,28.34
2017-06-19T12:24:52.193Z,28.29
2017-06-19T12:26:01.813Z,28.34
2017-06-19T12:27:11.108Z,28.33
2017-06-19T12:28:20.709Z,28.34
2017-06-19T12:29:30.156Z,28.3
2017-06-19T12:30:39.770Z,28.29
2017-06-19T12:31:49.682Z,28.29
2017-06-19T12:32:58.981Z,28.29
2017-06-19T12:34:08.279Z,28.31
2017-06-19T12:35:18.050Z,28.27
2017-06-19T12:36:27.989Z,28.25
2017-06-19T12:37:37.590Z,28.33
2017-06-19T12:38:47.816Z,28.24
2017-06-19T12:39:57.113Z,28.27
2017-06-19T12:41:06.725Z,28.3
2017-06-19T12:42:16.031Z,28.22
2017-06-19T12:43:25.636Z,28.22
2017-06-19T12:44:35.563Z,28.25
2017-06-19T12:45:45.499Z,28.24
2017-06-19T12:46:55.518Z,28.22
2017-06-19T12:48:04.815Z,28.22
2017-06-19T12:49:14.737Z,28.24
2017-06-19T12:50:24.042Z,28.18
2017-06-19T12:51:34.265Z,28.22
2017-06-19T12:52:44.585Z,28.21
2017-06-19T12:53:54.191Z,28.24
2017-06-19T12:55:04.119Z,28.21
2017-06-19T12:56:14.038Z,28.22
2017-06-19T12:57:24.264Z,28.3
2017-06-19T12:58:33.361Z,28.22
2017-06-19T12:59:43.280Z,28.21
2017-06-19T13:00:52.883Z,28.27
2017-06-19T13:02:03.129Z,28.22
2017-06-19T13:03:12.741Z,28.24
2017-06-19T13:04:22.443Z,28.27
2017-06-19T13:05:32.058Z,28.27
2017-06-19T13:06:41.995Z,28.21
2017-06-19T13:07:51.602Z,28.19
2017-06-19T13:09:01.830Z,28.27
2017-06-19T13:10:11.747Z,28.19
2017-06-19T13:11:21.657Z,28.25
2017-06-19T13:12:31.269Z,28.19
2017-06-19T13:13:41.187Z,28.24
2017-06-19T13:14:51.097Z,28.24
2017-06-19T13:16:00.511Z,28.22
2017-06-19T13:17:10.735Z,28.22
2017-06-19T13:18:21.022Z,28.25
2017-06-19T13:19:31.250Z,28.19
2017-06-19T13:20:41.169Z,28.27
2017-06-19T13:21:51.097Z,28.25
2017-06-19T13:23:00.711Z,28.22
2017-06-19T13:24:10.620Z,28.25
2017-06-19T13:25:20.849Z,28.18
2017-06-19T13:26:30.509Z,28.3
2017-06-19T13:27:40.744Z,28.22
2017-06-19T13:28:50.669Z,28.27
2017-06-19T13:30:00.585Z,28.3
2017-06-19T13:31:10.205Z,28.22
2017-06-19T13:32:19.503Z,28.3
2017-06-19T13:33:29.109Z,28.3
2017-06-19T13:34:38.396Z,28.24
2017-06-19T13:35:47.703Z,28.22
2017-06-19T13:36:57.928Z,28.29
2017-06-19T13:38:07.531Z,28.3
2017-06-19T13:39:17.556Z,28.24
2017-06-19T13:40:27.473Z,28.31
2017-06-19T13:41:37.398Z,28.27
2017-06-19T13:42:46.746Z,28.27
2017-06-19T13:43:56.357Z,28.31
2017-06-19T13:45:06.582Z,28.29
2017-06-19T13:46:16.818Z,28.27
2017-06-19T13:47:26.439Z,28.31
2017-06-19T13:48:35.728Z,28.33
2017-06-19T13:49:45.645Z,28.27
2017-06-19T13:50:55.398Z,28.33
2017-06-19T13:52:05.023Z,28.27
2017-06-19T13:53:14.343Z,28.27
2017-06-19T13:54:23.959Z,28.3
2017-06-19T13:55:33.573Z,28.3
2017-06-19T13:56:42.880Z,28.27
2017-06-19T13:57:52.783Z,28.3
2017-06-19T13:59:02.092Z,28.27
2017-06-19T14:00:11.092Z,28.29
2017-06-19T14:01:20.704Z,28.29
2017-06-19T14:02:30.617Z,28.3
2017-06-19T14:03:40.223Z,28.29
2017-06-19T14:04:50.142Z,28.29
2017-06-19T14:06:00.739Z,28.3
2017-06-19T14:07:10.664Z,28.27
2017-06-19T14:08:20.368Z,28.3
2017-06-19T14:09:29.378Z,28.3
2017-06-19T14:10:39.294Z,28.36
2017-06-19T14:11:49.213Z,28.34
2017-06-19T14:12:59.130Z,28.39
2017-06-19T14:14:08.843Z,28.3
2017-06-19T14:15:18.759Z,28.29
2017-06-19T14:16:28.385Z,28.36
2017-06-19T14:17:38.006Z,28.34
2017-06-19T14:18:48.432Z,28.33
2017-06-19T14:19:58.346Z,28.33
2017-06-19T14:21:08.606Z,28.25
2017-06-19T14:22:18.846Z,28.34
2017-06-19T14:23:28.450Z,28.34
2017-06-19T14:24:38.065Z,28.33
2017-06-19T14:25:47.816Z,28.31
2017-06-19T14:26:58.060Z,28.34
2017-06-19T14:28:07.668Z,28.33
2017-06-19T14:29:16.975Z,28.33
2017-06-19T14:30:26.883Z,28.36
2017-06-19T14:31:36.530Z,28.37
2017-06-19T14:32:46.775Z,28.33
2017-06-19T14:33:56.396Z,28.33
2017-06-19T14:35:06.014Z,28.39
2017-06-19T14:36:15.625Z,28.37
2017-06-19T14:37:25.703Z,28.36
2017-06-19T14:38:35.623Z,28.31
2017-06-19T14:39:45.275Z,28.34
2017-06-19T14:40:55.502Z,28.33
2017-06-19T14:42:05.422Z,28.31
2017-06-19T14:43:15.996Z,28.33
2017-06-19T14:44:26.242Z,28.4
2017-06-19T14:45:36.174Z,28.37
2017-06-19T14:46:46.109Z,28.33
2017-06-19T14:47:56.041Z,28.36
2017-06-19T14:49:05.801Z,28.33
2017-06-19T14:50:15.416Z,28.4
2017-06-19T14:51:25.343Z,28.36
2017-06-19T14:52:34.992Z,28.39
2017-06-19T14:53:44.648Z,28.36
2017-06-19T14:54:55.029Z,28.37
2017-06-19T14:56:04.656Z,28.4
2017-06-19T14:57:14.603Z,28.36
2017-06-19T14:58:24.819Z,28.36
2017-06-19T14:59:34.730Z,28.39
2017-06-19T15:00:44.709Z,28.34
2017-06-19T15:01:54.315Z,28.36
2017-06-19T15:03:04.546Z,28.36
2017-06-19T15:04:14.170Z,28.36